createdAt,value
2018-10-11T00:00:57.281Z,100313.48
2018-10-11T00:03:25.379Z,100308.62
2018-10-11T00:05:53.495Z,100305.33
2018-10-11T00:08:21.597Z,100300.66
2018-10-11T00:10:49.696Z,100290.47
2018-10-11T00:13:17.789Z,100302.44
2018-10-11T00:15:45.881Z,100299.72
2018-10-11T00:18:13.965Z,100297.87
2018-10-11T00:20:42.118Z,100293.80
2018-10-11T00:23:10.249Z,100294.31
2018-10-11T00:25:38.358Z,100292.09
2018-10-11T00:28:06.789Z,100279.91
2018-10-11T00:30:34.888Z,100283.19
2018-10-11T00:33:03.083Z,100285.48
2018-10-11T00:35:31.195Z,100282.00
2018-10-11T00:37:59.289Z,100270.15
2018-10-11T00:40:27.389Z,100279.87
2018-10-11T00:42:55.478Z,100272.70
2018-10-11T00:45:23.633Z,100275.06
2018-10-11T00:47:51.728Z,100271.44
2018-10-11T00:50:19.828Z,100278.72
2018-10-11T00:52:47.923Z,100284.80
2018-10-11T00:55:16.033Z,100285.33
2018-10-11T00:57:44.124Z,100282.32
2018-10-11T01:00:12.297Z,100275.34
2018-10-11T01:02:40.418Z,100275.13
2018-10-11T01:05:08.529Z,100270.55
2018-10-11T01:07:36.625Z,100268.75
2018-10-11T01:10:04.800Z,100271.80
2018-10-11T01:12:32.875Z,100266.19
2018-10-11T01:15:00.979Z,100282.94
2018-10-11T01:17:29.069Z,100270.91
2018-10-11T01:19:57.164Z,100270.17
2018-10-11T01:22:25.257Z,100264.48
2018-10-11T01:24:53.337Z,100262.19
2018-10-11T01:27:21.433Z,100255.81
2018-10-11T01:29:49.616Z,100250.22
2018-10-11T01:32:17.637Z,100246.98
2018-10-11T01:34:45.803Z,100263.88
2018-10-11T01:37:13.930Z,100257.52
2018-10-11T01:39:42.049Z,100260.58
2018-10-11T01:42:10.157Z,100261.13
2018-10-11T01:44:38.489Z,100256.11
2018-10-11T01:47:06.681Z,100250.89
2018-10-11T01:49:34.793Z,100254.17
2018-10-11T01:52:02.894Z,100262.22
2018-10-11T01:54:30.985Z,100253.63
2018-10-11T01:56:59.081Z,100249.70
2018-10-11T01:59:27.160Z,100249.35
2018-10-11T02:01:55.222Z,100252.31
2018-10-11T02:04:23.301Z,100263.77
2018-10-11T02:06:51.359Z,100255.98
2018-10-11T02:09:19.494Z,100249.16
2018-10-11T02:11:47.519Z,100242.88
2018-10-11T02:14:15.617Z,100241.01
2018-10-11T02:16:43.744Z,100250.05
2018-10-11T02:19:12.145Z,100245.70
2018-10-11T02:21:40.472Z,100245.16
2018-10-11T02:24:08.608Z,100241.98
2018-10-11T02:26:36.688Z,100241.88
2018-10-11T02:29:04.744Z,100252.41
2018-10-11T02:31:32.837Z,100247.03
2018-10-11T02:34:00.926Z,100243.63
2018-10-11T02:36:29.012Z,100237.60
2018-10-11T02:38:57.189Z,100231.07
2018-10-11T02:41:25.381Z,100237.77
2018-10-11T02:43:53.740Z,100233.45
2018-10-11T02:46:21.832Z,100234.92
2018-10-11T02:48:49.917Z,100230.93
2018-10-11T02:51:18.032Z,100233.43
2018-10-11T02:53:46.116Z,100233.94
2018-10-11T02:56:14.204Z,100222.74
2018-10-11T02:58:53.777Z,100224.75
2018-10-11T03:01:21.881Z,100219.96
2018-10-11T03:03:52.828Z,100219.23
2018-10-11T03:06:20.969Z,100214.59
2018-10-11T03:08:49.038Z,100225.06
2018-10-11T03:11:17.129Z,100216.66
2018-10-11T03:13:45.219Z,100216.34
2018-10-11T03:16:13.344Z,100221.95
2018-10-11T03:18:41.461Z,100214.91
2018-10-11T03:21:09.568Z,100211.04
2018-10-11T03:23:37.664Z,100203.05
2018-10-11T03:26:05.761Z,100202.83
2018-10-11T03:28:33.833Z,100205.81
2018-10-11T03:31:01.928Z,100206.97
2018-10-11T03:33:30.063Z,100209.06
2018-10-11T03:35:58.160Z,100213.94
2018-10-11T03:38:26.269Z,100216.19
2018-10-11T03:40:54.449Z,100211.53
2018-10-11T03:43:22.689Z,100221.20
2018-10-11T03:45:50.776Z,100221.66
2018-10-11T03:48:18.863Z,100216.48
2018-10-11T03:50:46.953Z,100220.42
2018-10-11T03:53:15.062Z,100220.19
2018-10-11T03:55:43.159Z,100213.87
2018-10-11T03:58:11.252Z,100210.53
2018-10-11T04:00:39.356Z,100213.30
2018-10-11T04:03:07.507Z,100205.39
2018-10-11T04:05:35.615Z,100203.20
2018-10-11T04:08:03.692Z,100199.87
2018-10-11T04:10:31.844Z,100203.55
2018-10-11T04:12:59.944Z,100206.88
2018-10-11T04:15:28.179Z,100211.62
2018-10-11T04:17:56.345Z,100213.92
2018-10-11T04:20:24.473Z,100209.13
2018-10-11T04:22:52.585Z,100203.75
2018-10-11T04:25:20.692Z,100197.57
2018-10-11T04:27:48.787Z,100195.28
2018-10-11T04:30:16.870Z,100188.38
2018-10-11T04:32:44.960Z,100184.81
2018-10-11T04:35:13.160Z,100180.67
2018-10-11T04:37:41.524Z,100188.95
2018-10-11T04:40:09.649Z,100184.01
2018-10-11T04:42:37.747Z,100183.78
2018-10-11T04:45:05.820Z,100187.34
2018-10-11T04:47:33.912Z,100181.02
2018-10-11T04:50:02.005Z,100174.58
2018-10-11T04:52:30.238Z,100172.69
2018-10-11T04:54:58.328Z,100174.95
2018-10-11T04:57:26.438Z,100171.48
2018-10-11T04:59:54.532Z,100171.76
2018-10-11T05:02:22.625Z,100175.55
2018-10-11T05:04:50.717Z,100178.66
2018-10-11T05:07:18.920Z,100184.09
2018-10-11T05:09:47.048Z,100180.24
2018-10-11T05:12:15.240Z,100186.86
2018-10-11T05:14:43.672Z,100186.11
2018-10-11T05:17:11.815Z,100190.97
2018-10-11T05:19:40.585Z,100195.02
2018-10-11T05:22:08.672Z,100189.87
2018-10-11T05:24:36.760Z,100190.59
2018-10-11T05:27:05.570Z,100196.36
2018-10-11T05:29:33.710Z,100196.87
2018-10-11T05:32:01.946Z,100195.74
2018-10-11T05:34:30.072Z,100196.45
2018-10-11T05:36:58.200Z,100207.63
2018-10-11T05:39:26.389Z,100202.48
2018-10-11T05:41:54.499Z,100195.36
2018-10-11T05:44:22.662Z,100196.30
2018-10-11T05:46:50.764Z,100193.98
2018-10-11T05:49:18.916Z,100195.02
2018-10-11T05:51:47.055Z,100193.27
2018-10-11T05:54:15.138Z,100195.08
2018-10-11T05:56:45.278Z,100193.93
2018-10-11T05:59:13.330Z,100192.78
2018-10-11T06:01:41.405Z,100198.16
2018-10-11T06:04:11.115Z,100212.91
2018-10-11T06:06:39.245Z,100204.78
2018-10-11T06:09:08.388Z,100205.88
2018-10-11T06:11:36.592Z,100202.83
2018-10-11T06:14:04.772Z,100199.28
2018-10-11T06:16:33.108Z,100207.22
2018-10-11T06:19:01.192Z,100218.33
2018-10-11T06:21:29.477Z,100225.67
2018-10-11T06:23:58.780Z,100209.16
2018-10-11T06:26:26.881Z,100204.15
2018-10-11T06:28:54.994Z,100201.61
2018-10-11T06:31:23.173Z,100204.23
2018-10-11T06:36:31.326Z,100219.20
2018-10-11T06:38:59.781Z,100221.39
2018-10-11T06:41:28.087Z,100213.84
2018-10-11T06:43:56.667Z,100213.59
2018-10-11T06:46:24.885Z,100227.03
2018-10-11T06:48:53.060Z,100221.34
2018-10-11T06:51:21.302Z,100226.14
2018-10-11T06:53:52.721Z,100227.34
2018-10-11T06:56:21.345Z,100230.95
2018-10-11T06:58:49.493Z,100231.38
2018-10-11T07:01:17.687Z,100226.17
2018-10-11T07:03:45.829Z,100226.50
2018-10-11T07:06:14.012Z,100239.91
2018-10-11T07:08:42.302Z,100236.00
2018-10-11T07:11:10.417Z,100238.23
2018-10-11T07:13:38.970Z,100234.09
2018-10-11T07:16:07.169Z,100231.80
2018-10-11T07:18:35.305Z,100231.66
2018-10-11T07:21:03.464Z,100240.65
2018-10-11T07:23:31.767Z,100230.02
2018-10-11T07:25:59.967Z,100237.31
2018-10-11T07:28:28.136Z,100241.03
2018-10-11T07:30:56.281Z,100225.25
2018-10-11T07:33:24.822Z,100250.16
2018-10-11T07:35:53.044Z,100260.43
2018-10-11T07:38:21.273Z,100266.61
2018-10-11T07:40:49.453Z,100262.30
2018-10-11T07:43:17.591Z,100262.14
2018-10-11T07:45:45.713Z,100258.39
2018-10-11T07:48:13.843Z,100252.69
2018-10-11T07:50:42.072Z,100253.18
2018-10-11T07:53:10.258Z,100257.77
2018-10-11T07:55:38.452Z,100256.78
2018-10-11T07:58:06.612Z,100253.02
2018-10-11T08:00:34.736Z,100252.32
2018-10-11T08:03:02.840Z,100235.27
2018-10-11T08:05:37.605Z,100238.81
2018-10-11T08:08:05.745Z,100237.16
2018-10-11T08:10:33.977Z,100241.26
2018-10-11T08:13:02.080Z,100234.35
2018-10-11T08:15:30.196Z,100232.96
2018-10-11T08:17:58.676Z,100233.77
2018-10-11T08:20:26.791Z,100245.09
2018-10-11T08:22:54.891Z,100254.16
2018-10-11T08:25:23.380Z,100255.07
2018-10-11T08:27:51.291Z,100240.07
2018-10-11T08:30:19.474Z,100243.72
2018-10-11T08:32:47.590Z,100243.81
2018-10-11T08:35:15.772Z,100240.63
2018-10-11T08:37:43.962Z,100242.58
2018-10-11T08:40:12.034Z,100240.86
2018-10-11T08:42:40.140Z,100234.16
2018-10-11T08:45:08.310Z,100226.09
2018-10-11T08:47:36.445Z,100232.69
2018-10-11T08:50:04.672Z,100247.46
2018-10-11T08:52:32.796Z,100261.33
2018-10-11T08:55:01.013Z,100270.56
2018-10-11T08:57:29.162Z,100271.63
2018-10-11T08:59:57.346Z,100270.48
2018-10-11T09:02:25.505Z,100262.92
2018-10-11T09:04:53.641Z,100271.47
2018-10-11T09:07:21.882Z,100271.65
2018-10-11T09:09:53.634Z,100272.62
2018-10-11T09:12:18.624Z,100278.98
2018-10-11T09:14:46.837Z,100273.77
2018-10-11T09:17:15.052Z,100266.60
2018-10-11T09:19:43.249Z,100266.52
2018-10-11T09:22:11.464Z,100272.62
2018-10-11T09:24:39.589Z,100285.69
2018-10-11T09:27:07.718Z,100270.34
2018-10-11T09:29:35.869Z,100269.24
2018-10-11T09:32:03.960Z,100265.11
2018-10-11T09:34:32.253Z,100268.84
2018-10-11T09:37:00.417Z,100272.60
2018-10-11T09:39:28.624Z,100272.29
2018-10-11T09:41:56.758Z,100276.84
2018-10-11T09:44:24.943Z,100272.61
2018-10-11T09:46:53.152Z,100264.72
2018-10-11T09:49:21.284Z,100268.83
2018-10-11T09:51:49.461Z,100273.58
2018-10-11T09:54:17.580Z,100269.77
2018-10-11T09:57:48.737Z,100265.77
2018-10-11T10:00:22.145Z,100270.13
2018-10-11T10:02:50.676Z,100269.48
2018-10-11T10:05:18.782Z,100270.28
2018-10-11T10:07:46.937Z,100263.23
2018-10-11T10:10:15.095Z,100272.45
2018-10-11T10:12:43.310Z,100268.97
2018-10-11T10:15:11.488Z,100258.45
2018-10-11T10:17:39.704Z,100268.31
2018-10-11T10:20:07.840Z,100273.42
2018-10-11T10:22:36.015Z,100270.92
2018-10-11T10:25:04.162Z,100267.66
2018-10-11T10:27:32.422Z,100275.52
2018-10-11T10:30:00.610Z,100272.56
2018-10-11T10:32:28.808Z,100268.50
2018-10-11T10:34:57.223Z,100273.22
2018-10-11T10:37:25.446Z,100274.92
2018-10-11T10:39:53.779Z,100276.17
2018-10-11T10:42:21.936Z,100271.23
2018-10-11T10:44:50.148Z,100273.28
2018-10-11T10:47:18.418Z,100267.53
2018-10-11T10:49:46.597Z,100271.42
2018-10-11T10:52:14.757Z,100265.30
2018-10-11T10:54:42.912Z,100260.77
2018-10-11T10:57:11.097Z,100255.88
2018-10-11T10:59:39.315Z,100259.05
2018-10-11T11:02:07.525Z,100259.78
2018-10-11T11:04:35.728Z,100257.70
2018-10-11T11:07:03.946Z,100257.39
2018-10-11T11:09:32.103Z,100255.02
2018-10-11T11:12:00.448Z,100253.08
2018-10-11T11:14:29.145Z,100248.12
2018-10-11T11:16:57.388Z,100246.98
2018-10-11T11:19:25.780Z,100243.91
2018-10-11T11:21:53.969Z,100246.20
2018-10-11T11:24:22.088Z,100236.81
2018-10-11T11:26:50.363Z,100234.72
2018-10-11T11:29:18.879Z,100251.13
2018-10-11T11:31:47.097Z,100245.52
2018-10-11T11:34:15.349Z,100239.89
2018-10-11T11:36:43.572Z,100235.49
2018-10-11T11:39:11.801Z,100232.52
2018-10-11T11:41:39.932Z,100233.84
2018-10-11T11:44:08.072Z,100229.98
2018-10-11T11:46:36.187Z,100235.17
2018-10-11T11:49:04.343Z,100233.77
2018-10-11T11:51:32.528Z,100235.33
2018-10-11T11:54:00.689Z,100235.25
2018-10-11T11:56:28.846Z,100231.22
2018-10-11T11:58:56.981Z,100231.48
2018-10-11T12:01:25.136Z,100233.07
2018-10-11T12:03:53.265Z,100229.75
2018-10-11T12:06:21.424Z,100231.50
2018-10-11T12:08:49.553Z,100232.91
2018-10-11T12:11:17.691Z,100237.49
2018-10-11T12:13:45.848Z,100227.80
2018-10-11T12:16:13.989Z,100228.15
2018-10-11T12:18:42.169Z,100226.59
2018-10-11T12:21:10.372Z,100227.27
2018-10-11T12:23:38.514Z,100239.05
2018-10-11T12:26:06.803Z,100231.86
2018-10-11T12:28:35.090Z,100238.52
2018-10-11T12:31:03.197Z,100237.03
2018-10-11T12:33:32.377Z,100239.41
2018-10-11T12:36:06.939Z,100238.16
2018-10-11T12:38:35.129Z,100242.75
2018-10-11T12:41:03.265Z,100237.13
2018-10-11T12:43:31.398Z,100239.41
2018-10-11T12:45:59.561Z,100238.01
2018-10-11T12:48:27.716Z,100239.05
2018-10-11T12:50:55.791Z,100236.87
2018-10-11T12:53:23.881Z,100229.55
2018-10-11T12:55:52.000Z,100231.86
2018-10-11T12:58:20.082Z,100230.45
2018-10-11T13:00:48.257Z,100233.87
2018-10-11T13:03:16.444Z,100237.03
2018-10-11T13:05:44.480Z,100233.94
2018-10-11T13:08:12.547Z,100231.66
2018-10-11T13:10:40.626Z,100230.25
2018-10-11T13:13:08.896Z,100225.27
2018-10-11T13:15:37.087Z,100231.84
2018-10-11T13:18:05.154Z,100228.84
2018-10-11T13:20:33.274Z,100226.40
2018-10-11T13:23:01.493Z,100216.19
2018-10-11T13:25:29.604Z,100214.42
2018-10-11T13:27:57.696Z,100219.02
2018-10-11T13:30:25.856Z,100217.94
2018-10-11T13:32:54.017Z,100216.96
2018-10-11T13:35:22.193Z,100211.52
2018-10-11T13:37:50.231Z,100210.22
2018-10-11T13:40:18.315Z,100211.34
2018-10-11T13:42:46.436Z,100205.11
2018-10-11T13:45:14.528Z,100200.16
2018-10-11T13:47:45.296Z,100201.56
2018-10-11T13:50:10.899Z,100198.59
2018-10-11T13:52:38.967Z,100200.25
2018-10-11T13:55:11.114Z,100196.55
2018-10-11T13:57:35.153Z,100199.05
2018-10-11T14:00:03.444Z,100203.45
2018-10-11T14:02:31.605Z,100217.16
2018-10-11T14:04:59.709Z,100222.27
2018-10-11T14:07:27.868Z,100224.05
2018-10-11T14:09:55.949Z,100219.64
2018-10-11T14:12:24.072Z,100217.71
2018-10-11T14:14:52.146Z,100218.94
2018-10-11T14:17:20.356Z,100221.23
2018-10-11T14:19:48.439Z,100216.21
2018-10-11T14:22:16.551Z,100214.10
2018-10-11T14:24:44.629Z,100212.84
2018-10-11T14:27:12.731Z,100191.16
2018-10-11T14:29:40.795Z,100213.30
2018-10-11T14:32:08.887Z,100213.03
2018-10-11T14:34:37.024Z,100211.53
2018-10-11T14:37:05.269Z,100213.45
2018-10-11T14:39:33.264Z,100216.36
2018-10-11T14:42:01.451Z,100209.23
2018-10-11T14:44:29.573Z,100216.40
2018-10-11T14:46:57.668Z,100210.31
2018-10-11T14:49:26.098Z,100210.64
2018-10-11T14:51:54.168Z,100209.42
2018-10-11T14:54:22.236Z,100210.77
2018-10-11T14:56:50.400Z,100212.27
2018-10-11T14:59:20.806Z,100207.77
2018-10-11T15:01:48.882Z,100201.44
2018-10-11T15:04:16.965Z,100197.50
2018-10-11T15:06:45.053Z,100201.29
2018-10-11T15:09:13.120Z,100208.75
2018-10-11T15:11:41.216Z,100202.17
2018-10-11T15:14:09.276Z,100203.58
2018-10-11T15:16:37.433Z,100201.66
2018-10-11T15:19:05.512Z,100200.34
2018-10-11T15:21:33.668Z,100203.16
2018-10-11T15:24:01.812Z,100201.22
2018-10-11T15:26:29.920Z,100202.54
2018-10-11T15:28:57.992Z,100205.99
2018-10-11T15:31:26.064Z,100205.02
2018-10-11T15:33:54.283Z,100208.09
2018-10-11T15:36:22.538Z,100208.38
2018-10-11T15:38:50.672Z,100208.46
2018-10-11T15:41:18.742Z,100198.95
2018-10-11T15:43:46.905Z,100205.47
2018-10-11T15:46:15.061Z,100206.11
2018-10-11T15:48:43.131Z,100208.21
2018-10-11T15:51:11.214Z,100204.77
2018-10-11T15:53:39.344Z,100211.92
2018-10-11T15:56:07.600Z,100210.92
2018-10-11T15:58:35.759Z,100210.56
2018-10-11T16:01:04.045Z,100213.91
2018-10-11T16:03:32.144Z,100212.66
2018-10-11T16:06:00.229Z,100221.89
2018-10-11T16:08:28.293Z,100219.69
2018-10-11T16:10:56.356Z,100229.52
2018-10-11T16:13:24.536Z,100228.53
2018-10-11T16:15:52.640Z,100227.34
2018-10-11T16:18:20.756Z,100234.16
2018-10-11T16:20:48.837Z,100232.64
2018-10-11T16:23:16.924Z,100236.64
2018-10-11T16:25:45.032Z,100238.44
2018-10-11T16:28:13.126Z,100242.88
2018-10-11T16:30:41.412Z,100246.45
2018-10-11T16:33:09.421Z,100249.74
2018-10-11T16:35:37.561Z,100244.95
2018-10-11T16:38:05.633Z,100246.58
2018-10-11T16:40:33.720Z,100245.45
2018-10-11T16:43:01.782Z,100248.13
2018-10-11T16:45:29.960Z,100243.87
2018-10-11T16:47:58.029Z,100245.14
2018-10-11T16:50:26.136Z,100249.23
2018-10-11T16:52:54.228Z,100252.70
2018-10-11T16:55:22.329Z,100253.39
2018-10-11T16:57:50.421Z,100245.45
2018-10-11T17:00:18.506Z,100249.66
2018-10-11T17:02:46.593Z,100245.95
2018-10-11T17:05:14.717Z,100248.03
2018-10-11T17:07:42.942Z,100255.34
2018-10-11T17:10:11.069Z,100250.25
2018-10-11T17:12:39.164Z,100253.54
2018-10-11T17:15:07.344Z,100256.47
2018-10-11T17:17:35.517Z,100256.17
2018-10-11T17:20:03.646Z,100256.70
2018-10-11T17:22:31.716Z,100259.00
2018-10-11T17:24:59.792Z,100265.48
2018-10-11T17:27:28.256Z,100261.56
2018-10-11T17:29:56.374Z,100264.65
2018-10-11T17:32:24.692Z,100265.29
2018-10-11T17:34:52.769Z,100263.53
2018-10-11T17:37:20.901Z,100257.37
2018-10-11T17:39:48.999Z,100251.17
2018-10-11T17:42:17.176Z,100258.77
2018-10-11T17:44:45.279Z,100252.05
2018-10-11T17:47:13.349Z,100253.36
2018-10-11T17:49:41.421Z,100265.87
2018-10-11T17:52:09.500Z,100267.70
2018-10-11T17:54:37.655Z,100265.18
2018-10-11T17:57:05.780Z,100268.27
2018-10-11T17:59:33.898Z,100274.84
2018-10-11T18:02:01.984Z,100285.47
2018-10-11T18:04:30.057Z,100284.89
2018-10-11T18:06:58.149Z,100295.72
2018-10-11T18:09:26.221Z,100296.75
2018-10-11T18:11:54.294Z,100293.75
2018-10-11T18:14:22.425Z,100297.75
2018-10-11T18:16:50.525Z,100291.92
2018-10-11T18:19:18.693Z,100286.49
2018-10-11T18:21:46.843Z,100288.09
2018-10-11T18:24:14.954Z,100285.06
2018-10-11T18:26:43.008Z,100278.40
2018-10-11T18:29:11.143Z,100277.93
2018-10-11T18:31:39.160Z,100275.66
2018-10-11T18:34:08.001Z,100273.23
2018-10-11T18:36:36.080Z,100277.16
2018-10-11T18:39:06.848Z,100282.28
2018-10-11T18:41:34.924Z,100279.08
2018-10-11T18:44:03.086Z,100274.28
2018-10-11T18:46:31.136Z,100281.64
2018-10-11T18:48:59.201Z,100288.88
2018-10-11T18:51:27.273Z,100286.23
2018-10-11T18:53:55.626Z,100289.67
2018-10-11T18:56:23.769Z,100296.83
2018-10-11T18:58:51.823Z,100295.40
2018-10-11T19:01:19.949Z,100290.59
2018-10-11T19:03:48.029Z,100285.00
2018-10-11T19:06:16.167Z,100283.80
2018-10-11T19:08:44.248Z,100284.16
2018-10-11T19:11:12.546Z,100289.52
2018-10-11T19:13:40.765Z,100294.52
2018-10-11T19:16:09.072Z,100291.52
2018-10-11T19:18:37.487Z,100294.36
2018-10-11T19:21:05.581Z,100299.36
2018-10-11T19:23:33.640Z,100304.95
2018-10-11T19:26:01.705Z,100295.63
2018-10-11T19:28:29.751Z,100297.67
2018-10-11T19:30:57.913Z,100290.58
2018-10-11T19:33:25.991Z,100288.62
2018-10-11T19:35:54.134Z,100281.30
2018-10-11T19:38:22.225Z,100276.09
2018-10-11T19:40:50.570Z,100284.56
2018-10-11T19:43:19.052Z,100294.78
2018-10-11T19:45:47.209Z,100297.19
2018-10-11T19:48:15.622Z,100299.58
2018-10-11T19:50:43.716Z,100292.42
2018-10-11T19:53:11.981Z,100292.19
2018-10-11T19:55:40.133Z,100293.78
2018-10-11T19:58:08.268Z,100292.32
2018-10-11T20:00:36.332Z,100304.91
2018-10-11T20:03:04.785Z,100290.75
2018-10-11T20:05:32.840Z,100293.05
2018-10-11T20:08:01.034Z,100296.78
2018-10-11T20:10:29.064Z,100297.38
2018-10-11T20:12:57.149Z,100296.98
2018-10-11T20:15:25.290Z,100301.30
2018-10-11T20:17:53.352Z,100298.70
2018-10-11T20:20:21.399Z,100302.87
2018-10-11T20:22:49.533Z,100311.03
2018-10-11T20:25:17.593Z,100307.20
2018-10-11T20:27:45.660Z,100314.95
2018-10-11T20:30:13.856Z,100314.95
2018-10-11T20:32:41.926Z,100312.55
2018-10-11T20:35:10.034Z,100316.19
2018-10-11T20:37:38.091Z,100318.43
2018-10-11T20:40:06.246Z,100315.06
2018-10-11T20:42:34.336Z,100316.09
2018-10-11T20:45:02.433Z,100323.33
2018-10-11T20:47:30.496Z,100317.17
2018-10-11T20:49:58.669Z,100329.19
2018-10-11T20:52:26.824Z,100333.02
2018-10-11T20:54:54.910Z,100337.66
2018-10-11T20:57:23.045Z,100339.32
2018-10-11T20:59:51.141Z,100347.58
2018-10-11T21:02:19.217Z,100346.17
2018-10-11T21:04:47.260Z,100342.01
2018-10-11T21:07:15.372Z,100335.45
2018-10-11T21:09:43.441Z,100341.61
2018-10-11T21:12:11.532Z,100339.27
2018-10-11T21:14:39.636Z,100346.30
2018-10-11T21:17:07.788Z,100345.13
2018-10-11T21:19:35.849Z,100343.75
2018-10-11T21:22:03.964Z,100348.77
2018-10-11T21:24:32.046Z,100348.17
2018-10-11T21:27:00.153Z,100345.78
2018-10-11T21:29:28.363Z,100346.20
2018-10-11T21:31:56.445Z,100342.44
2018-10-11T21:34:24.548Z,100351.85
2018-10-11T21:36:52.571Z,100350.68
2018-10-11T21:39:20.648Z,100346.06
2018-10-11T21:41:48.711Z,100348.23
2018-10-11T21:44:16.817Z,100348.60
2018-10-11T21:46:44.881Z,100351.60
2018-10-11T21:49:12.953Z,100353.00
2018-10-11T21:51:41.025Z,100356.73
2018-10-11T21:54:09.143Z,100356.69
2018-10-11T21:56:37.220Z,100350.06
2018-10-11T21:59:05.384Z,100350.03
2018-10-11T22:01:33.452Z,100355.37
2018-10-11T22:04:01.527Z,100351.80
2018-10-11T22:06:29.742Z,100355.23
2018-10-11T22:08:57.902Z,100357.02
2018-10-11T22:11:26.027Z,100359.25
2018-10-11T22:13:54.096Z,100360.45
2018-10-11T22:16:22.169Z,100349.72
2018-10-11T22:18:50.244Z,100355.17
2018-10-11T22:21:18.317Z,100346.38
2018-10-11T22:23:46.432Z,100350.00
2018-10-11T22:26:14.492Z,100354.19
2018-10-11T22:28:42.557Z,100357.22
2018-10-11T22:31:12.461Z,100360.22
2018-10-11T22:33:41.231Z,100362.44
2018-10-11T22:36:09.727Z,100363.48
2018-10-11T22:38:37.837Z,100359.67
2018-10-11T22:41:06.186Z,100350.70
2018-10-11T22:43:34.260Z,100345.09
2018-10-11T22:46:02.328Z,100352.67
2018-10-11T22:48:30.400Z,100345.06
2018-10-11T22:50:58.460Z,100345.23
2018-10-11T22:53:26.548Z,100348.80
2018-10-11T22:55:54.627Z,100293.41
2018-10-11T22:58:22.714Z,100343.09
2018-10-11T23:00:50.844Z,100347.36
2018-10-11T23:03:18.949Z,100355.63
2018-10-11T23:05:47.009Z,100361.45
2018-10-11T23:08:15.080Z,100367.72
2018-10-11T23:10:43.125Z,100367.38
2018-10-11T23:13:11.196Z,100373.00
2018-10-11T23:15:39.294Z,100369.84
2018-10-11T23:18:07.360Z,100376.30
2018-10-11T23:20:35.422Z,100372.73
2018-10-11T23:23:03.517Z,100378.76
2018-10-11T23:25:31.681Z,100370.45
2018-10-11T23:27:59.736Z,100373.64
2018-10-11T23:30:27.799Z,100381.47
2018-10-11T23:32:55.874Z,100379.29
2018-10-11T23:35:23.944Z,100382.89
2018-10-11T23:37:52.005Z,100397.27
2018-10-11T23:40:20.078Z,100401.49
2018-10-11T23:42:48.160Z,100405.27
2018-10-11T23:45:16.221Z,100407.88
2018-10-11T23:47:44.275Z,100402.09
2018-10-11T23:50:12.340Z,100404.29
2018-10-11T23:52:40.659Z,100414.27
2018-10-11T23:55:09.053Z,100410.85
2018-10-11T23:57:37.109Z,100419.42
